Skip Navigation LinksHome page > Weather > Current weather Skip Navigation Links

Current Weather

Anaktuvuk Pass, Alaska

For information only: do not use for flight planning or navigation.
Latest weather
Observation time Wednesday, January 26, 2022 6:56 PM AKST
Local time Wednesday, January 26, 2022 7:34 PM AKST
Flight conditions Visual Meteorological Conditions
Winds
Wind direction North-Northeast (30°)
Wind speed 12 mph
Visibility 10 mi.
Sky condition
Ceiling unlimited
Sky clear
Temperature -21°F
Dewpoint -27°F
Altimeter 30.25 in.Hg
Derived measurements
Relative humidity 72%
Wind chill -43°F
Density altitude -4093 ft.
Sea-level pressure 30.57 in.Hg
Remarks
Fully automated report.
Automated weather observing station with precipitation discriminator.
Freezing rain sensor not operating.
METAR PAKP 270356Z AUTO 03010KT 10SM CLR M29/M33 A3025 RMK AO2 SLP352 T12941328 FZRANO

Settings

Location code

InnerDrive.Weather 4.0.6770.0 Release CLR 4.0.30319.42000
Copyright ©2018 Inner Drive Technology. All rights reserved. Portions Copyright ©1986-2018 David Braverman.

Find weather

Site navigation


Skip Navigation Links

Place info

Page info

PayPal - The safer, easier way to pay online!

Return home.

Copyright ©2022 Inner Drive Technology. Purveyors of fine, hand-crafted computer software. Page printed 2022-01-27T04:34:46 UTC.